Lewisville's Hourly Summary for Wednesday, April 19, 2017
Hour Temp
(f)
RH
(%)
Solar Rad.
(MJ/m2)
Rainfall
(in)
Wind
(mph)
4/19/2017 12:00 AM 68 81 0 0 3.72
4/19/2017 1:00 AM 67 85 0 0 4.94
4/19/2017 2:00 AM 67 89 0 0 4.27
4/19/2017 3:00 AM 66 89 0 0 1.33
4/19/2017 4:00 AM 65 94 0 0 2.7
4/19/2017 5:00 AM 66 92 0 0 5.64
4/19/2017 6:00 AM 66 90 0 0 7.05
4/19/2017 7:00 AM 66 88 0 0 6.44
4/19/2017 8:00 AM 67 87 0.11 0 5.82
4/19/2017 9:00 AM 68 82 0.42 0 7.35
4/19/2017 10:00 AM 69 77 0.84 0 8.75
4/19/2017 11:00 AM 70 74 0.82 0 8.63
4/19/2017 12:00 PM 72 69 0.99 0 8.03
4/19/2017 1:00 PM 73 66 1.1 0 7.78
4/19/2017 2:00 PM 76 60 2.39 0 10.71
4/19/2017 3:00 PM 77 54 2.48 0 11.25
4/19/2017 4:00 PM 79 50 2.41 0 12.26
4/19/2017 5:00 PM 80 51 2.12 0 11.7
4/19/2017 6:00 PM 80 52 1.2 0 11.24
4/19/2017 7:00 PM 80 54 0.79 0 9.61
4/19/2017 8:00 PM 79 56 0.17 0 8.77
4/19/2017 9:00 PM 77 62 0 0 7.67
4/19/2017 10:00 PM 76 65 0 0 6.72
4/19/2017 11:00 PM 75 69 0 0 8.65
Data Summary 72 72 15.84 0.00 7.54